Siesta Key, Florida
Current Conditions -  °F | °C
As of 3:53 PM on Wednesday 17 Dec 2014 (Local Time) from KSRQ Reporting Station
Clear Clear  
Wind Chill: 71°   Ceiling: Unl
Heat Index: 71°   Visibility: 10mi
Dew Point: 60°   Wind: 6mph
Humidity: 68%   Direction: 260°W
Pressure: 30.1"   Gusts: NA
Location:  27.2613°N, 82.5431°W
Report Text: KSRQ 172053Z 26005KT 10SM CLR 22/16 A3010 RMK AO2 SLP193 T02170156 56014
Loading
Personal Weather Stations






























Interactive Weather Map New forecast layout! Learn more

10-Day Weather Forecast

Advertisements
Track Severe Weather on mobile